sensor_id;sensor_type;location;lat;lon;timestamp;pressure;altitude;pressure_sealevel;temperature;humidity
76853;BME280;65825;52.232;10.566;2023-04-03T00:00:42;102216.34;;;-0.57;81.63
76853;BME280;65825;52.232;10.566;2023-04-03T00:03:07;102212.91;;;-0.57;81.03
76853;BME280;65825;52.232;10.566;2023-04-03T00:05:33;102222.56;;;-0.53;81.36
76853;BME280;65825;52.232;10.566;2023-04-03T00:07:58;102218.94;;;-0.57;81.39
76853;BME280;65825;52.232;10.566;2023-04-03T00:10:24;102216.13;;;-0.63;82.03
76853;BME280;65825;52.232;10.566;2023-04-03T00:12:49;102212.53;;;-0.67;81.99
76853;BME280;65825;52.232;10.566;2023-04-03T00:15:15;102211.69;;;-0.67;81.90
76853;BME280;65825;52.232;10.566;2023-04-03T00:17:40;102215.81;;;-0.72;82.19
76853;BME280;65825;52.232;10.566;2023-04-03T00:20:06;102225.34;;;-0.71;81.91
76853;BME280;65825;52.232;10.566;2023-04-03T00:22:32;102220.50;;;-0.84;82.99
76853;BME280;65825;52.232;10.566;2023-04-03T00:24:57;102222.94;;;-0.88;82.84
76853;BME280;65825;52.232;10.566;2023-04-03T00:27:22;102223.94;;;-0.85;82.08
76853;BME280;65825;52.232;10.566;2023-04-03T00:29:48;102235.06;;;-0.88;82.54
76853;BME280;65825;52.232;10.566;2023-04-03T00:32:13;102225.53;;;-0.88;82.73
76853;BME280;65825;52.232;10.566;2023-04-03T00:34:38;102228.72;;;-0.95;83.03
76853;BME280;65825;52.232;10.566;2023-04-03T00:37:04;102242.16;;;-1.04;83.62
76853;BME280;65825;52.232;10.566;2023-04-03T00:39:30;102233.69;;;-1.00;83.56
76853;BME280;65825;52.232;10.566;2023-04-03T00:41:55;102247.94;;;-1.11;84.28
76853;BME280;65825;52.232;10.566;2023-04-03T00:45:20;102239.09;;;-1.16;84.53
76853;BME280;65825;52.232;10.566;2023-04-03T00:47:11;102247.00;;;-1.13;84.44
76853;BME280;65825;52.232;10.566;2023-04-03T00:49:37;102243.22;;;-1.21;84.30
76853;BME280;65825;52.232;10.566;2023-04-03T00:52:05;102249.06;;;-1.26;84.70
76853;BME280;65825;52.232;10.566;2023-04-03T00:54:34;102250.91;;;-1.23;84.06
76853;BME280;65825;52.232;10.566;2023-04-03T00:57:01;102251.69;;;-1.25;84.58
76853;BME280;65825;52.232;10.566;2023-04-03T00:59:30;102250.69;;;-1.28;84.39
76853;BME280;65825;52.232;10.566;2023-04-03T01:01:58;102253.47;;;-1.24;84.28
76853;BME280;65825;52.232;10.566;2023-04-03T01:04:32;102250.56;;;-1.31;84.99
76853;BME280;65825;52.232;10.566;2023-04-03T01:07:02;102253.84;;;-1.35;85.38
76853;BME280;65825;52.232;10.566;2023-04-03T01:09:29;102258.88;;;-1.38;85.24
76853;BME280;65825;52.232;10.566;2023-04-03T01:12:22;102266.59;;;-1.40;85.75
76853;BME280;65825;52.232;10.566;2023-04-03T01:14:50;102268.25;;;-1.42;85.64
76853;BME280;65825;52.232;10.566;2023-04-03T01:17:37;102271.78;;;-1.40;86.07
76853;BME280;65825;52.232;10.566;2023-04-03T01:25:40;102271.09;;;-1.36;85.16
76853;BME280;65825;52.232;10.566;2023-04-03T01:28:09;102269.16;;;-1.41;85.63
76853;BME280;65825;52.232;10.566;2023-04-03T01:30:47;102278.47;;;-1.45;85.61
76853;BME280;65825;52.232;10.566;2023-04-03T01:33:14;102276.84;;;-1.43;85.54
76853;BME280;65825;52.232;10.566;2023-04-03T01:35:39;102274.13;;;-1.46;86.27
76853;BME280;65825;52.232;10.566;2023-04-03T01:38:05;102270.59;;;-1.48;86.36
76853;BME280;65825;52.232;10.566;2023-04-03T01:40:31;102274.81;;;-1.50;86.38
76853;BME280;65825;52.232;10.566;2023-04-03T01:42:56;102275.09;;;-1.44;86.10
76853;BME280;65825;52.232;10.566;2023-04-03T01:45:22;102267.25;;;-1.45;86.08
76853;BME280;65825;52.232;10.566;2023-04-03T01:47:47;102271.53;;;-1.46;86.65
76853;BME280;65825;52.232;10.566;2023-04-03T01:50:12;102273.34;;;-1.43;86.63
76853;BME280;65825;52.232;10.566;2023-04-03T01:52:37;102269.84;;;-1.45;85.84
76853;BME280;65825;52.232;10.566;2023-04-03T01:55:03;102282.13;;;-1.40;86.19
76853;BME280;65825;52.232;10.566;2023-04-03T01:57:28;102275.19;;;-1.41;86.04
76853;BME280;65825;52.232;10.566;2023-04-03T01:59:53;102283.53;;;-1.48;86.66
76853;BME280;65825;52.232;10.566;2023-04-03T02:02:19;102286.22;;;-1.45;86.47
76853;BME280;65825;52.232;10.566;2023-04-03T02:04:45;102279.38;;;-1.44;87.08
76853;BME280;65825;52.232;10.566;2023-04-03T02:07:10;102277.78;;;-1.41;86.36
76853;BME280;65825;52.232;10.566;2023-04-03T02:09:35;102278.69;;;-1.40;86.10
76853;BME280;65825;52.232;10.566;2023-04-03T02:12:02;102276.00;;;-1.42;86.27
76853;BME280;65825;52.232;10.566;2023-04-03T02:14:27;102290.66;;;-1.42;85.90
76853;BME280;65825;52.232;10.566;2023-04-03T02:16:53;102285.53;;;-1.41;85.44
76853;BME280;65825;52.232;10.566;2023-04-03T02:19:18;102284.47;;;-1.46;85.58
76853;BME280;65825;52.232;10.566;2023-04-03T02:21:43;102285.97;;;-1.51;86.47
76853;BME280;65825;52.232;10.566;2023-04-03T02:24:09;102280.69;;;-1.54;86.22
76853;BME280;65825;52.232;10.566;2023-04-03T02:26:34;102286.69;;;-1.55;86.38
76853;BME280;65825;52.232;10.566;2023-04-03T02:28:59;102287.75;;;-1.50;87.13
76853;BME280;65825;52.232;10.566;2023-04-03T02:31:24;102282.47;;;-1.53;87.13
76853;BME280;65825;52.232;10.566;2023-04-03T02:33:50;102290.47;;;-1.47;86.56
76853;BME280;65825;52.232;10.566;2023-04-03T02:36:15;102289.31;;;-1.53;86.29
76853;BME280;65825;52.232;10.566;2023-04-03T02:38:41;102293.56;;;-1.55;86.34
76853;BME280;65825;52.232;10.566;2023-04-03T02:41:09;102298.81;;;-1.54;85.74
76853;BME280;65825;52.232;10.566;2023-04-03T02:43:35;102302.22;;;-1.55;86.01
76853;BME280;65825;52.232;10.566;2023-04-03T02:46:01;102299.34;;;-1.61;86.28
76853;BME280;65825;52.232;10.566;2023-04-03T02:48:26;102303.59;;;-1.63;86.54
76853;BME280;65825;52.232;10.566;2023-04-03T02:50:52;102300.81;;;-1.67;86.60
76853;BME280;65825;52.232;10.566;2023-04-03T02:53:18;102311.38;;;-1.63;86.43
76853;BME280;65825;52.232;10.566;2023-04-03T02:55:44;102308.59;;;-1.67;87.55
76853;BME280;65825;52.232;10.566;2023-04-03T02:58:09;102309.47;;;-1.67;87.05
76853;BME280;65825;52.232;10.566;2023-04-03T03:00:35;102304.75;;;-1.56;86.74
76853;BME280;65825;52.232;10.566;2023-04-03T03:03:00;102304.59;;;-1.59;85.97
76853;BME280;65825;52.232;10.566;2023-04-03T03:05:26;102304.53;;;-1.61;86.23
76853;BME280;65825;52.232;10.566;2023-04-03T03:07:52;102300.75;;;-1.69;86.19
76853;BME280;65825;52.232;10.566;2023-04-03T03:10:18;102305.03;;;-1.69;86.52
76853;BME280;65825;52.232;10.566;2023-04-03T03:12:43;102306.59;;;-1.73;86.07
76853;BME280;65825;52.232;10.566;2023-04-03T03:15:08;102300.69;;;-1.70;86.37
76853;BME280;65825;52.232;10.566;2023-04-03T03:17:34;102303.69;;;-1.80;86.89
76853;BME280;65825;52.232;10.566;2023-04-03T03:20:00;102304.59;;;-1.80;86.27
76853;BME280;65825;52.232;10.566;2023-04-03T03:22:28;102307.22;;;-1.78;86.56
76853;BME280;65825;52.232;10.566;2023-04-03T03:24:53;102312.38;;;-1.78;86.65
76853;BME280;65825;52.232;10.566;2023-04-03T03:27:20;102312.13;;;-1.84;86.45
76853;BME280;65825;52.232;10.566;2023-04-03T03:29:45;102320.38;;;-1.93;87.19
76853;BME280;65825;52.232;10.566;2023-04-03T03:32:10;102319.38;;;-1.96;87.35
76853;BME280;65825;52.232;10.566;2023-04-03T03:34:36;102318.34;;;-2.00;87.05
76853;BME280;65825;52.232;10.566;2023-04-03T03:37:01;102311.53;;;-1.98;86.49
76853;BME280;65825;52.232;10.566;2023-04-03T03:39:26;102321.00;;;-1.98;86.74
76853;BME280;65825;52.232;10.566;2023-04-03T03:41:52;102317.25;;;-2.05;86.86
76853;BME280;65825;52.232;10.566;2023-04-03T03:44:18;102314.31;;;-2.12;87.55
76853;BME280;65825;52.232;10.566;2023-04-03T03:46:44;102322.00;;;-2.14;88.16
76853;BME280;65825;52.232;10.566;2023-04-03T03:49:09;102318.69;;;-2.11;87.12
76853;BME280;65825;52.232;10.566;2023-04-03T03:51:35;102323.50;;;-2.19;87.18
76853;BME280;65825;52.232;10.566;2023-04-03T03:54:01;102322.00;;;-2.14;87.21
76853;BME280;65825;52.232;10.566;2023-04-03T03:56:26;102313.97;;;-2.20;87.24
76853;BME280;65825;52.232;10.566;2023-04-03T03:58:51;102318.34;;;-2.19;87.45
76853;BME280;65825;52.232;10.566;2023-04-03T04:01:17;102322.56;;;-2.21;87.07
76853;BME280;65825;52.232;10.566;2023-04-03T04:03:43;102318.97;;;-2.24;87.85
76853;BME280;65825;52.232;10.566;2023-04-03T04:06:08;102329.06;;;-2.29;87.66
76853;BME280;65825;52.232;10.566;2023-04-03T04:08:33;102328.13;;;-2.31;88.12
76853;BME280;65825;52.232;10.566;2023-04-03T04:10:58;102332.31;;;-2.33;88.50
76853;BME280;65825;52.232;10.566;2023-04-03T04:13:24;102326.41;;;-2.30;88.24
76853;BME280;65825;52.232;10.566;2023-04-03T04:15:49;102334.63;;;-2.39;88.82
76853;BME280;65825;52.232;10.566;2023-04-03T04:18:15;102326.38;;;-2.32;88.12
76853;BME280;65825;52.232;10.566;2023-04-03T04:20:40;102328.78;;;-2.35;88.35
76853;BME280;65825;52.232;10.566;2023-04-03T04:23:05;102318.53;;;-2.33;87.44
76853;BME280;65825;52.232;10.566;2023-04-03T04:25:31;102329.75;;;-2.33;87.43
76853;BME280;65825;52.232;10.566;2023-04-03T04:27:56;102327.78;;;-2.38;88.12
76853;BME280;65825;52.232;10.566;2023-04-03T04:30:21;102331.94;;;-2.42;88.39
76853;BME280;65825;52.232;10.566;2023-04-03T04:32:46;102321.78;;;-2.37;87.47
76853;BME280;65825;52.232;10.566;2023-04-03T04:35:12;102327.41;;;-2.46;87.91
76853;BME280;65825;52.232;10.566;2023-04-03T04:37:37;102333.63;;;-2.42;87.99
76853;BME280;65825;52.232;10.566;2023-04-03T04:40:03;102337.56;;;-2.50;88.46
76853;BME280;65825;52.232;10.566;2023-04-03T04:42:28;102346.94;;;-2.52;88.38
76853;BME280;65825;52.232;10.566;2023-04-03T04:44:53;102345.31;;;-2.50;89.03
76853;BME280;65825;52.232;10.566;2023-04-03T04:47:18;102346.25;;;-2.48;88.56
76853;BME280;65825;52.232;10.566;2023-04-03T04:49:44;102343.75;;;-2.47;88.37
76853;BME280;65825;52.232;10.566;2023-04-03T04:52:10;102352.63;;;-2.42;88.24
76853;BME280;65825;52.232;10.566;2023-04-03T04:54:35;102362.13;;;-2.41;87.69
76853;BME280;65825;52.232;10.566;2023-04-03T04:57:00;102363.00;;;-2.40;87.78
76853;BME280;65825;52.232;10.566;2023-04-03T04:59:26;102364.84;;;-2.38;87.91
76853;BME280;65825;52.232;10.566;2023-04-03T05:01:51;102360.66;;;-2.36;88.06
76853;BME280;65825;52.232;10.566;2023-04-03T05:04:17;102367.59;;;-2.35;88.56
76853;BME280;65825;52.232;10.566;2023-04-03T05:06:42;102366.56;;;-2.38;87.98
76853;BME280;65825;52.232;10.566;2023-04-03T05:09:07;102370.31;;;-2.32;88.30
76853;BME280;65825;52.232;10.566;2023-04-03T05:11:33;102370.72;;;-2.23;88.34
76853;BME280;65825;52.232;10.566;2023-04-03T05:13:59;102370.97;;;-2.18;87.83
76853;BME280;65825;52.232;10.566;2023-04-03T05:16:24;102373.75;;;-2.14;87.74
76853;BME280;65825;52.232;10.566;2023-04-03T05:18:50;102367.97;;;-2.08;87.48
76853;BME280;65825;52.232;10.566;2023-04-03T05:21:15;102376.69;;;-2.06;87.77
76853;BME280;65825;52.232;10.566;2023-04-03T05:23:43;102367.50;;;-2.00;87.24
76853;BME280;65825;52.232;10.566;2023-04-03T05:26:08;102379.91;;;-1.93;87.53
76853;BME280;65825;52.232;10.566;2023-04-03T05:28:34;102377.66;;;-1.85;87.68
76853;BME280;65825;52.232;10.566;2023-04-03T05:30:59;102375.28;;;-1.81;87.77
76853;BME280;65825;52.232;10.566;2023-04-03T05:33:25;102383.44;;;-1.72;87.42
76853;BME280;65825;52.232;10.566;2023-04-03T05:35:52;102383.72;;;-1.66;86.88
76853;BME280;65825;52.232;10.566;2023-04-03T05:38:17;102386.72;;;-1.57;86.64
76853;BME280;65825;52.232;10.566;2023-04-03T05:40:42;102393.97;;;-1.48;86.64
76853;BME280;65825;52.232;10.566;2023-04-03T05:43:08;102393.31;;;-1.44;86.78
76853;BME280;65825;52.232;10.566;2023-04-03T05:45:33;102390.97;;;-1.38;86.46
76853;BME280;65825;52.232;10.566;2023-04-03T05:47:58;102394.66;;;-1.33;86.83
76853;BME280;65825;52.232;10.566;2023-04-03T05:50:24;102401.94;;;-1.25;85.92
76853;BME280;65825;52.232;10.566;2023-04-03T05:52:50;102405.81;;;-1.15;85.63
76853;BME280;65825;52.232;10.566;2023-04-03T05:55:17;102405.25;;;-1.08;85.70
76853;BME280;65825;52.232;10.566;2023-04-03T05:57:43;102411.38;;;-1.07;85.55
76853;BME280;65825;52.232;10.566;2023-04-03T06:00:12;102411.56;;;-1.02;85.51
76853;BME280;65825;52.232;10.566;2023-04-03T06:02:37;102416.13;;;-0.97;85.78
76853;BME280;65825;52.232;10.566;2023-04-03T06:05:03;102413.97;;;-0.86;85.26
76853;BME280;65825;52.232;10.566;2023-04-03T06:07:29;102414.16;;;-0.82;85.00
76853;BME280;65825;52.232;10.566;2023-04-03T06:09:56;102415.56;;;-0.69;84.92
76853;BME280;65825;52.232;10.566;2023-04-03T06:12:22;102421.94;;;-0.61;84.16
76853;BME280;65825;52.232;10.566;2023-04-03T06:14:48;102423.44;;;-0.46;83.68
76853;BME280;65825;52.232;10.566;2023-04-03T06:17:15;102418.38;;;-0.43;83.65
76853;BME280;65825;52.232;10.566;2023-04-03T06:19:40;102423.41;;;-0.25;83.47
76853;BME280;65825;52.232;10.566;2023-04-03T06:22:06;102420.13;;;0.01;82.27
76853;BME280;65825;52.232;10.566;2023-04-03T06:24:31;102424.66;;;0.06;81.82
76853;BME280;65825;52.232;10.566;2023-04-03T06:26:57;102421.34;;;0.10;81.47
76853;BME280;65825;52.232;10.566;2023-04-03T06:29:23;102422.69;;;0.23;81.07
76853;BME280;65825;52.232;10.566;2023-04-03T06:31:49;102421.09;;;0.50;80.56
76853;BME280;65825;52.232;10.566;2023-04-03T06:34:15;102421.81;;;0.69;79.13
76853;BME280;65825;52.232;10.566;2023-04-03T06:36:42;102423.59;;;1.19;77.80
76853;BME280;65825;52.232;10.566;2023-04-03T06:39:11;102417.31;;;1.65;76.46
76853;BME280;65825;52.232;10.566;2023-04-03T06:41:38;102411.41;;;1.99;74.99
76853;BME280;65825;52.232;10.566;2023-04-03T06:44:03;102427.25;;;2.95;72.04
76853;BME280;65825;52.232;10.566;2023-04-03T06:46:29;102418.06;;;4.17;67.44
76853;BME280;65825;52.232;10.566;2023-04-03T06:48:54;102425.69;;;5.38;62.66
76853;BME280;65825;52.232;10.566;2023-04-03T06:51:23;102424.50;;;6.28;59.11
76853;BME280;65825;52.232;10.566;2023-04-03T06:53:50;102428.13;;;7.17;55.08
76853;BME280;65825;52.232;10.566;2023-04-03T06:56:16;102430.53;;;7.93;53.53
76853;BME280;65825;52.232;10.566;2023-04-03T06:58:42;102428.03;;;8.17;52.15
76853;BME280;65825;52.232;10.566;2023-04-03T07:01:10;102436.84;;;7.13;55.55
76853;BME280;65825;52.232;10.566;2023-04-03T07:03:36;102432.81;;;7.48;53.90
76853;BME280;65825;52.232;10.566;2023-04-03T07:06:03;102438.91;;;8.77;51.15
76853;BME280;65825;52.232;10.566;2023-04-03T07:08:28;102442.53;;;9.37;49.87
76853;BME280;65825;52.232;10.566;2023-04-03T07:10:54;102440.75;;;10.32;47.09
76853;BME280;65825;52.232;10.566;2023-04-03T07:13:19;102443.88;;;11.18;44.92
76853;BME280;65825;52.232;10.566;2023-04-03T07:15:45;102442.44;;;11.93;41.94
76853;BME280;65825;52.232;10.566;2023-04-03T07:18:10;102444.28;;;12.66;40.28
76853;BME280;65825;52.232;10.566;2023-04-03T07:20:36;102445.00;;;13.42;38.75
76853;BME280;65825;52.232;10.566;2023-04-03T07:23:01;102451.09;;;14.02;37.83
76853;BME280;65825;52.232;10.566;2023-04-03T07:25:28;102451.81;;;14.57;35.18
76853;BME280;65825;52.232;10.566;2023-04-03T07:27:53;102454.91;;;15.18;34.54
76853;BME280;65825;52.232;10.566;2023-04-03T07:30:20;102452.59;;;15.79;33.68
76853;BME280;65825;52.232;10.566;2023-04-03T07:32:45;102457.22;;;16.38;32.41
76853;BME280;65825;52.232;10.566;2023-04-03T07:35:11;102458.81;;;16.77;30.93
76853;BME280;65825;52.232;10.566;2023-04-03T07:37:36;102461.25;;;17.13;31.14
76853;BME280;65825;52.232;10.566;2023-04-03T07:40:01;102458.66;;;17.67;29.55
76853;BME280;65825;52.232;10.566;2023-04-03T07:42:28;102455.00;;;17.95;28.80
76853;BME280;65825;52.232;10.566;2023-04-03T07:44:53;102461.97;;;18.51;29.75
76853;BME280;65825;52.232;10.566;2023-04-03T07:47:19;102461.41;;;19.35;28.05
76853;BME280;65825;52.232;10.566;2023-04-03T07:49:46;102453.44;;;20.18;26.31
76853;BME280;65825;52.232;10.566;2023-04-03T07:52:12;102459.97;;;20.91;24.47
76853;BME280;65825;52.232;10.566;2023-04-03T07:54:39;102450.84;;;21.86;23.78
76853;BME280;65825;52.232;10.566;2023-04-03T07:57:05;102447.91;;;22.42;22.72
76853;BME280;65825;52.232;10.566;2023-04-03T07:59:30;102442.66;;;23.52;21.08
76853;BME280;65825;52.232;10.566;2023-04-03T08:01:56;102434.22;;;24.62;20.45
76853;BME280;65825;52.232;10.566;2023-04-03T08:04:22;102427.84;;;25.46;19.02
76853;BME280;65825;52.232;10.566;2023-04-03T08:06:47;102437.09;;;26.21;17.80
76853;BME280;65825;52.232;10.566;2023-04-03T08:09:14;102433.34;;;27.24;17.94
76853;BME280;65825;52.232;10.566;2023-04-03T08:11:40;102441.13;;;28.22;16.26
76853;BME280;65825;52.232;10.566;2023-04-03T08:14:05;102440.75;;;28.94;15.50
76853;BME280;65825;52.232;10.566;2023-04-03T08:16:31;102432.53;;;30.03;14.07
76853;BME280;65825;52.232;10.566;2023-04-03T08:18:56;102434.06;;;30.78;13.86
76853;BME280;65825;52.232;10.566;2023-04-03T08:21:22;102433.34;;;31.45;12.97
76853;BME280;65825;52.232;10.566;2023-04-03T08:23:49;102434.13;;;32.14;12.43
76853;BME280;65825;52.232;10.566;2023-04-03T08:26:20;102440.09;;;33.11;11.15
76853;BME280;65825;52.232;10.566;2023-04-03T08:28:46;102442.28;;;28.07;14.81
76853;BME280;65825;52.232;10.566;2023-04-03T08:31:14;102440.50;;;32.70;11.84
76853;BME280;65825;52.232;10.566;2023-04-03T08:33:40;102432.78;;;34.00;11.17
76853;BME280;65825;52.232;10.566;2023-04-03T08:36:14;102430.50;;;35.07;9.39
76853;BME280;65825;52.232;10.566;2023-04-03T08:38:40;102438.94;;;30.74;13.51
76853;BME280;65825;52.232;10.566;2023-04-03T08:44:25;102433.44;;;32.31;11.32
76853;BME280;65825;52.232;10.566;2023-04-03T08:47:17;102443.84;;;36.65;8.76
76853;BME280;65825;52.232;10.566;2023-04-03T08:49:45;102411.41;;;36.91;8.77
76853;BME280;65825;52.232;10.566;2023-04-03T08:52:17;102425.44;;;23.08;17.77
76853;BME280;65825;52.232;10.566;2023-04-03T08:54:55;102427.41;;;29.24;12.41
76853;BME280;65825;52.232;10.566;2023-04-03T08:57:35;102440.94;;;31.42;11.33
76853;BME280;65825;52.232;10.566;2023-04-03T09:00:07;102435.94;;;34.74;9.28
76853;BME280;65825;52.232;10.566;2023-04-03T09:02:47;102429.56;;;27.73;14.43
76853;BME280;65825;52.232;10.566;2023-04-03T09:05:19;102443.06;;;30.69;12.62
76853;BME280;65825;52.232;10.566;2023-04-03T09:10:24;102444.81;;;37.35;7.58
76853;BME280;65825;52.232;10.566;2023-04-03T09:15:43;102437.94;;;37.31;7.38
76853;BME280;65825;52.232;10.566;2023-04-03T09:18:45;102427.41;;;26.94;14.44
76853;BME280;65825;52.232;10.566;2023-04-03T09:21:31;102436.88;;;27.24;14.61
76853;BME280;65825;52.232;10.566;2023-04-03T09:24:01;102430.00;;;35.53;9.27
76853;BME280;65825;52.232;10.566;2023-04-03T09:26:33;102409.78;;;27.71;13.28
76853;BME280;65825;52.232;10.566;2023-04-03T09:29:05;102417.53;;;35.83;9.44
76853;BME280;65825;52.232;10.566;2023-04-03T09:31:42;102420.75;;;32.20;11.04
76853;BME280;65825;52.232;10.566;2023-04-03T09:34:22;102401.44;;;30.97;11.32
76853;BME280;65825;52.232;10.566;2023-04-03T09:36:51;102418.25;;;31.51;11.14
76853;BME280;65825;52.232;10.566;2023-04-03T09:39:19;102411.53;;;33.85;10.34
76853;BME280;65825;52.232;10.566;2023-04-03T09:42:11;102411.84;;;36.08;8.36
76853;BME280;65825;52.232;10.566;2023-04-03T09:44:41;102412.13;;;39.75;7.19
76853;BME280;65825;52.232;10.566;2023-04-03T09:47:19;102398.09;;;28.40;12.78
76853;BME280;65825;52.232;10.566;2023-04-03T09:49:48;102389.13;;;22.34;17.80
76853;BME280;65825;52.232;10.566;2023-04-03T09:52:23;102389.69;;;22.07;19.14
76853;BME280;65825;52.232;10.566;2023-04-03T09:54:50;102388.88;;;18.74;22.00
76853;BME280;65825;52.232;10.566;2023-04-03T09:57:15;102398.38;;;17.60;23.83
76853;BME280;65825;52.232;10.566;2023-04-03T09:59:46;102399.84;;;30.03;12.23
76853;BME280;65825;52.232;10.566;2023-04-03T10:05:02;102379.56;;;22.61;17.32
76853;BME280;65825;52.232;10.566;2023-04-03T10:07:34;102379.41;;;27.19;13.98
76853;BME280;65825;52.232;10.566;2023-04-03T10:10:22;102383.38;;;37.26;7.43
76853;BME280;65825;52.232;10.566;2023-04-03T10:13:23;102373.94;;;40.67;6.19
76853;BME280;65825;52.232;10.566;2023-04-03T10:16:03;102373.22;;;41.33;4.55
76853;BME280;65825;52.232;10.566;2023-04-03T10:24:20;102362.38;;;26.19;14.19
76853;BME280;65825;52.232;10.566;2023-04-03T10:35:14;102355.75;;;23.02;18.12
76853;BME280;65825;52.232;10.566;2023-04-03T10:38:03;102357.94;;;20.34;20.35
76853;BME280;65825;52.232;10.566;2023-04-03T10:40:47;102353.00;;;18.33;23.09
76853;BME280;65825;52.232;10.566;2023-04-03T10:45:55;102356.69;;;17.80;23.44
76853;BME280;65825;52.232;10.566;2023-04-03T10:48:32;102365.19;;;16.25;25.36
76853;BME280;65825;52.232;10.566;2023-04-03T10:56:30;102362.59;;;13.51;28.61
76853;BME280;65825;52.232;10.566;2023-04-03T10:59:02;102359.53;;;13.24;29.92
76853;BME280;65825;52.232;10.566;2023-04-03T11:01:34;102358.50;;;13.32;30.86
76853;BME280;65825;52.232;10.566;2023-04-03T11:04:04;102354.94;;;13.35;29.78
76853;BME280;65825;52.232;10.566;2023-04-03T11:06:40;102356.19;;;13.63;30.23
76853;BME280;65825;52.232;10.566;2023-04-03T11:09:19;102364.50;;;14.78;28.89
76853;BME280;65825;52.232;10.566;2023-04-03T11:11:46;102343.31;;;26.58;14.72
76853;BME280;65825;52.232;10.566;2023-04-03T11:14:31;102337.31;;;32.99;9.82
76853;BME280;65825;52.232;10.566;2023-04-03T11:17:09;102325.34;;;25.68;14.50
76853;BME280;65825;52.232;10.566;2023-04-03T11:19:43;102335.38;;;30.63;11.62
76853;BME280;65825;52.232;10.566;2023-04-03T11:22:27;102326.88;;;31.55;9.85
76853;BME280;65825;52.232;10.566;2023-04-03T11:25:02;102328.09;;;32.63;8.99
76853;BME280;65825;52.232;10.566;2023-04-03T11:27:35;102325.63;;;37.10;7.43
76853;BME280;65825;52.232;10.566;2023-04-03T11:30:06;102325.38;;;37.50;8.07
76853;BME280;65825;52.232;10.566;2023-04-03T11:35:12;102316.97;;;22.89;16.83
76853;BME280;65825;52.232;10.566;2023-04-03T11:37:41;102319.00;;;19.46;20.51
76853;BME280;65825;52.232;10.566;2023-04-03T11:42:46;102323.44;;;16.56;24.73
76853;BME280;65825;52.232;10.566;2023-04-03T11:47:51;102313.16;;;17.77;22.76
76853;BME280;65825;52.232;10.566;2023-04-03T12:08:47;102302.09;;;41.79;4.72
76853;BME280;65825;52.232;10.566;2023-04-03T12:14:01;102301.19;;;41.92;4.96
76853;BME280;65825;52.232;10.566;2023-04-03T12:24:28;102298.44;;;43.32;4.20
76853;BME280;65825;52.232;10.566;2023-04-03T12:40:24;102275.31;;;44.36;3.78
76853;BME280;65825;52.232;10.566;2023-04-03T12:45:52;102239.34;;;34.65;8.05
76853;BME280;65825;52.232;10.566;2023-04-03T12:48:26;102256.53;;;27.99;12.26
76853;BME280;65825;52.232;10.566;2023-04-03T12:50:52;102249.78;;;27.12;13.16
76853;BME280;65825;52.232;10.566;2023-04-03T12:53:21;102241.69;;;24.18;14.41
76853;BME280;65825;52.232;10.566;2023-04-03T12:55:54;102243.81;;;28.10;11.35
76853;BME280;65825;52.232;10.566;2023-04-03T12:58:22;102259.31;;;32.58;10.64
76853;BME280;65825;52.232;10.566;2023-04-03T13:01:10;102239.28;;;25.09;15.26
76853;BME280;65825;52.232;10.566;2023-04-03T13:03:39;102247.56;;;23.53;15.53
76853;BME280;65825;52.232;10.566;2023-04-03T13:06:05;102238.56;;;21.83;17.53
76853;BME280;65825;52.232;10.566;2023-04-03T13:08:31;102232.59;;;19.81;18.50
76853;BME280;65825;52.232;10.566;2023-04-03T13:11:02;102234.16;;;18.40;22.20
76853;BME280;65825;52.232;10.566;2023-04-03T13:13:28;102246.28;;;17.29;22.85
76853;BME280;65825;52.232;10.566;2023-04-03T13:15:54;102244.41;;;16.81;23.73
76853;BME280;65825;52.232;10.566;2023-04-03T13:20:59;102247.38;;;17.50;24.15
76853;BME280;65825;52.232;10.566;2023-04-03T13:23:26;102231.09;;;23.43;18.22
76853;BME280;65825;52.232;10.566;2023-04-03T13:25:53;102236.63;;;19.09;19.54
76853;BME280;65825;52.232;10.566;2023-04-03T13:28:23;102233.63;;;23.60;15.95
76853;BME280;65825;52.232;10.566;2023-04-03T13:31:07;102235.09;;;25.44;14.81
76853;BME280;65825;52.232;10.566;2023-04-03T13:33:36;102228.88;;;28.49;12.22
76853;BME280;65825;52.232;10.566;2023-04-03T13:36:20;102229.88;;;29.94;11.26
76853;BME280;65825;52.232;10.566;2023-04-03T13:38:58;102212.06;;;29.60;12.15
76853;BME280;65825;52.232;10.566;2023-04-03T13:41:30;102203.31;;;24.82;13.47
76853;BME280;65825;52.232;10.566;2023-04-03T13:43:56;102212.00;;;23.03;17.07
76853;BME280;65825;52.232;10.566;2023-04-03T13:46:24;102208.22;;;22.76;16.79
76853;BME280;65825;52.232;10.566;2023-04-03T13:48:54;102207.88;;;20.31;18.73
76853;BME280;65825;52.232;10.566;2023-04-03T13:51:26;102205.00;;;25.48;14.87
76853;BME280;65825;52.232;10.566;2023-04-03T13:53:55;102204.06;;;28.42;11.69
76853;BME280;65825;52.232;10.566;2023-04-03T14:01:44;102193.25;;;28.63;11.24
76853;BME280;65825;52.232;10.566;2023-04-03T14:04:15;102187.22;;;29.74;10.96
76853;BME280;65825;52.232;10.566;2023-04-03T14:06:41;102196.91;;;27.97;12.30
76853;BME280;65825;52.232;10.566;2023-04-03T14:09:06;102194.66;;;30.32;10.46
76853;BME280;65825;52.232;10.566;2023-04-03T14:11:32;102184.09;;;30.58;10.42
76853;BME280;65825;52.232;10.566;2023-04-03T14:14:02;102191.66;;;30.84;10.42
76853;BME280;65825;52.232;10.566;2023-04-03T14:16:32;102177.50;;;30.60;9.44
76853;BME280;65825;52.232;10.566;2023-04-03T14:19:03;102177.84;;;31.33;10.56
76853;BME280;65825;52.232;10.566;2023-04-03T14:21:28;102169.81;;;30.94;9.85
76853;BME280;65825;52.232;10.566;2023-04-03T14:23:53;102169.38;;;26.65;12.96
76853;BME280;65825;52.232;10.566;2023-04-03T14:26:22;102172.44;;;22.43;16.76